createdAt,value
2019-05-29T00:01:18.482Z,10.34
2019-05-29T00:03:44.554Z,10.27
2019-05-29T00:06:14.405Z,10.32
2019-05-29T00:08:44.079Z,10.26
2019-05-29T00:11:14.327Z,10.16
2019-05-29T00:13:44.061Z,9.99
2019-05-29T00:16:14.513Z,9.94
2019-05-29T00:18:44.308Z,9.84
2019-05-29T00:21:14.736Z,9.86
2019-05-29T00:23:44.676Z,9.91
2019-05-29T00:26:14.672Z,10.01
2019-05-29T00:28:44.304Z,10.00
2019-05-29T00:31:14.037Z,10.13
2019-05-29T00:33:43.703Z,9.88
2019-05-29T00:36:14.331Z,9.87
2019-05-29T00:38:44.162Z,9.88
2019-05-29T00:41:15.066Z,9.76
2019-05-29T00:43:45.035Z,9.70
2019-05-29T00:46:15.566Z,9.58
2019-05-29T00:48:45.193Z,9.45
2019-05-29T00:51:15.164Z,9.38
2019-05-29T00:53:44.861Z,9.37
2019-05-29T00:56:14.708Z,9.33
2019-05-29T00:58:44.323Z,9.47
2019-05-29T01:01:14.055Z,9.53
2019-05-29T01:03:45.003Z,9.52
2019-05-29T01:06:15.991Z,9.63
2019-05-29T01:08:45.706Z,9.44
2019-05-29T01:11:15.384Z,9.62
2019-05-29T01:13:45.047Z,9.41
2019-05-29T01:16:15.356Z,9.30
2019-05-29T01:18:45.070Z,9.18
2019-05-29T01:21:14.630Z,9.08
2019-05-29T01:23:44.205Z,9.08
2019-05-29T01:26:14.517Z,8.97
2019-05-29T01:28:44.209Z,9.02
2019-05-29T01:31:15.127Z,8.85
2019-05-29T01:33:44.776Z,8.76
2019-05-29T01:36:14.412Z,8.68
2019-05-29T01:38:43.985Z,8.65
2019-05-29T01:41:13.556Z,8.76
2019-05-29T01:43:43.130Z,8.71
2019-05-29T01:46:12.688Z,8.63
2019-05-29T01:48:42.284Z,8.56
2019-05-29T01:51:11.945Z,8.54
2019-05-29T01:53:41.493Z,8.56
2019-05-29T01:56:11.072Z,8.64
2019-05-29T01:58:40.896Z,8.67
2019-05-29T02:01:10.491Z,8.78
2019-05-29T02:03:40.117Z,8.81
2019-05-29T02:06:09.675Z,8.81
2019-05-29T02:08:39.259Z,8.88
2019-05-29T02:11:09.033Z,8.97
2019-05-29T02:13:38.616Z,8.91
2019-05-29T02:16:08.346Z,8.74
2019-05-29T02:18:37.960Z,8.60
2019-05-29T02:21:07.594Z,8.56
2019-05-29T02:23:37.188Z,8.49
2019-05-29T02:26:06.748Z,8.40
2019-05-29T02:28:36.306Z,8.52
2019-05-29T02:31:05.983Z,8.56
2019-05-29T02:33:35.564Z,8.62
2019-05-29T02:36:05.121Z,8.59
2019-05-29T02:38:34.702Z,8.64
2019-05-29T02:41:04.435Z,8.50
2019-05-29T02:43:33.998Z,8.37
2019-05-29T02:46:03.689Z,8.29
2019-05-29T02:48:33.330Z,8.22
2019-05-29T02:51:03.149Z,8.34
2019-05-29T02:53:32.699Z,8.33
2019-05-29T02:56:02.258Z,8.21
2019-05-29T02:58:32.024Z,8.17
2019-05-29T03:01:01.738Z,8.27
2019-05-29T03:03:39.463Z,8.48
2019-05-29T03:06:05.636Z,8.52
2019-05-29T03:08:35.532Z,8.56
2019-05-29T03:11:05.388Z,8.42
2019-05-29T03:13:35.076Z,8.38
2019-05-29T03:16:11.563Z,8.38
2019-05-29T03:18:36.114Z,8.37
2019-05-29T03:21:05.698Z,8.35
2019-05-29T03:23:36.143Z,8.18
2019-05-29T03:26:06.233Z,8.06
2019-05-29T03:28:35.900Z,8.07
2019-05-29T03:31:05.728Z,8.23
2019-05-29T03:33:45.268Z,8.14
2019-05-29T03:36:06.706Z,8.08
2019-05-29T03:38:36.246Z,8.03
2019-05-29T03:41:05.849Z,8.05
2019-05-29T03:43:36.184Z,7.84
2019-05-29T03:46:06.063Z,7.71
2019-05-29T03:48:35.653Z,7.60
2019-05-29T03:51:05.278Z,7.76
2019-05-29T03:53:36.645Z,7.73
2019-05-29T03:56:06.294Z,7.72
2019-05-29T03:58:37.721Z,7.90
2019-05-29T04:01:07.311Z,7.81
2019-05-29T04:03:38.069Z,7.71
2019-05-29T04:06:08.650Z,7.71
2019-05-29T04:08:38.725Z,7.63
2019-05-29T04:11:08.368Z,7.56
2019-05-29T04:13:39.138Z,7.67
2019-05-29T04:16:10.968Z,7.79
2019-05-29T04:18:41.449Z,7.77
2019-05-29T04:21:11.822Z,7.82
2019-05-29T04:23:42.970Z,7.95
2019-05-29T04:26:15.667Z,8.02
2019-05-29T04:28:45.797Z,7.89
2019-05-29T04:31:15.434Z,8.08
2019-05-29T04:33:45.003Z,8.00
2019-05-29T04:36:14.570Z,7.98
2019-05-29T04:38:44.131Z,7.93
2019-05-29T04:41:13.712Z,7.89
2019-05-29T04:43:43.265Z,7.88
2019-05-29T04:46:12.848Z,8.06
2019-05-29T04:48:42.406Z,8.06
2019-05-29T04:51:12.050Z,8.08
2019-05-29T04:53:41.619Z,8.14
2019-05-29T04:56:11.278Z,8.21
2019-05-29T04:58:40.850Z,8.31
2019-05-29T05:01:10.459Z,8.38
2019-05-29T05:03:40.018Z,8.44
2019-05-29T05:06:09.595Z,8.49
2019-05-29T05:08:39.707Z,8.54
2019-05-29T05:11:10.339Z,8.55
2019-05-29T05:13:40.033Z,8.63
2019-05-29T05:16:09.860Z,8.66
2019-05-29T05:18:40.253Z,8.77
2019-05-29T05:21:10.080Z,8.84
2019-05-29T05:23:40.593Z,8.96
2019-05-29T05:26:10.598Z,9.12
2019-05-29T05:28:43.210Z,9.08
2019-05-29T05:31:11.450Z,9.15
2019-05-29T05:33:41.227Z,9.28
2019-05-29T05:36:10.868Z,9.37
2019-05-29T05:38:41.122Z,9.50
2019-05-29T05:41:11.090Z,9.54
2019-05-29T05:43:41.398Z,9.52
2019-05-29T05:46:11.337Z,9.48
2019-05-29T05:48:41.723Z,9.56
2019-05-29T05:51:11.415Z,9.77
2019-05-29T05:53:41.734Z,9.87
2019-05-29T05:56:11.996Z,9.93
2019-05-29T05:58:42.257Z,10.07
2019-05-29T06:01:12.284Z,10.14
2019-05-29T06:03:42.462Z,10.22
2019-05-29T06:06:12.795Z,10.28
2019-05-29T06:08:42.768Z,10.24
2019-05-29T06:11:12.360Z,10.35
2019-05-29T06:13:42.807Z,10.36
2019-05-29T06:16:12.635Z,10.43
2019-05-29T06:18:43.033Z,10.44
2019-05-29T06:21:13.023Z,10.60
2019-05-29T06:23:43.522Z,10.61
2019-05-29T06:26:13.551Z,10.78
2019-05-29T06:28:43.622Z,10.84
2019-05-29T06:31:13.238Z,10.82
2019-05-29T06:33:43.953Z,10.93
2019-05-29T06:36:13.869Z,10.96
2019-05-29T06:38:44.382Z,11.10
2019-05-29T06:41:14.559Z,11.19
2019-05-29T06:43:44.594Z,11.33
2019-05-29T06:46:14.548Z,11.30
2019-05-29T06:48:57.599Z,11.37
2019-05-29T06:51:15.469Z,11.39
2019-05-29T06:53:45.207Z,11.45
2019-05-29T06:56:15.684Z,11.56
2019-05-29T06:58:46.017Z,11.53
2019-05-29T07:01:15.600Z,11.60
2019-05-29T07:03:45.345Z,11.65
2019-05-29T07:06:15.013Z,11.70
2019-05-29T07:08:48.054Z,11.68
2019-05-29T07:11:15.985Z,11.77
2019-05-29T07:13:48.379Z,11.85
2019-05-29T07:16:16.935Z,11.89
2019-05-29T07:19:23.335Z,11.97
2019-05-29T07:21:17.785Z,12.10
2019-05-29T07:23:48.760Z,12.11
2019-05-29T07:26:18.760Z,12.23
2019-05-29T07:29:07.071Z,12.34
2019-05-29T07:31:19.697Z,12.48
2019-05-29T07:33:49.276Z,12.48
2019-05-29T07:36:18.839Z,12.58
2019-05-29T07:38:57.557Z,12.57
2019-05-29T07:41:19.858Z,12.75
2019-05-29T07:43:49.444Z,12.86
2019-05-29T07:46:19.197Z,12.94
2019-05-29T07:48:50.397Z,13.08
2019-05-29T07:51:20.326Z,13.13
2019-05-29T07:53:49.909Z,13.08
2019-05-29T07:56:22.934Z,13.18
2019-05-29T07:59:01.886Z,13.22
2019-05-29T08:01:22.551Z,13.29
2019-05-29T08:03:52.132Z,13.22
2019-05-29T08:06:21.832Z,13.18
2019-05-29T08:08:51.519Z,13.30
2019-05-29T08:11:21.174Z,13.38
2019-05-29T08:13:50.794Z,13.49
2019-05-29T08:16:20.361Z,13.64
2019-05-29T08:18:52.921Z,13.60
2019-05-29T08:21:21.483Z,13.73
2019-05-29T08:23:51.391Z,13.77
2019-05-29T08:26:21.434Z,13.91
2019-05-29T08:28:51.596Z,13.86
2019-05-29T08:31:21.210Z,13.93
2019-05-29T08:33:51.418Z,13.91
2019-05-29T08:36:21.177Z,14.09
2019-05-29T08:38:51.818Z,13.94
2019-05-29T08:41:21.800Z,13.98
2019-05-29T08:43:52.604Z,14.10
2019-05-29T08:46:22.400Z,14.08
2019-05-29T08:48:52.355Z,14.05
2019-05-29T08:51:22.077Z,14.20
2019-05-29T08:53:54.342Z,14.45
2019-05-29T08:56:23.224Z,14.63
2019-05-29T08:58:52.809Z,14.63
2019-05-29T09:01:22.449Z,14.73
2019-05-29T09:03:53.309Z,14.73
2019-05-29T09:06:23.088Z,14.68
2019-05-29T09:08:54.808Z,14.73
2019-05-29T09:11:23.941Z,14.67
2019-05-29T09:13:53.532Z,14.80
2019-05-29T09:16:23.218Z,14.92
2019-05-29T09:18:52.863Z,14.84
2019-05-29T09:21:23.627Z,14.83
2019-05-29T09:23:53.853Z,14.76
2019-05-29T09:26:25.823Z,14.77
2019-05-29T09:28:54.903Z,14.97
2019-05-29T09:31:24.849Z,15.07
2019-05-29T09:33:54.498Z,15.09
2019-05-29T09:36:24.949Z,15.31
2019-05-29T09:38:54.750Z,15.25
2019-05-29T09:41:25.574Z,14.95
2019-05-29T09:43:59.619Z,15.24
2019-05-29T09:46:26.751Z,15.34
2019-05-29T09:48:56.322Z,15.46
2019-05-29T09:51:26.774Z,15.68
2019-05-29T09:53:58.054Z,15.70
2019-05-29T09:56:28.697Z,15.72
2019-05-29T09:58:59.695Z,15.83
2019-05-29T10:01:29.734Z,16.12
2019-05-29T10:04:01.890Z,16.06
2019-05-29T10:06:30.721Z,16.25
2019-05-29T10:09:01.643Z,16.33
2019-05-29T10:11:31.444Z,16.55
2019-05-29T10:14:02.633Z,16.65
2019-05-29T10:16:32.398Z,16.73
2019-05-29T10:19:03.219Z,16.58
2019-05-29T10:21:40.149Z,16.36
2019-05-29T10:24:06.044Z,16.25
2019-05-29T10:26:35.915Z,16.25
2019-05-29T10:29:09.220Z,16.33
2019-05-29T10:31:37.009Z,16.51
2019-05-29T10:34:06.604Z,16.63
2019-05-29T10:36:36.221Z,17.02
2019-05-29T10:39:07.917Z,16.96
2019-05-29T10:41:37.563Z,17.03
2019-05-29T10:44:07.282Z,17.07
2019-05-29T10:46:36.809Z,17.35
2019-05-29T10:49:06.652Z,17.47
2019-05-29T10:51:36.219Z,17.72
2019-05-29T10:54:06.007Z,17.91
2019-05-29T10:56:36.540Z,18.06
2019-05-29T10:59:06.256Z,17.97
2019-05-29T11:01:35.824Z,18.03
2019-05-29T11:04:05.696Z,17.56
2019-05-29T11:06:35.221Z,17.22
2019-05-29T11:09:06.845Z,17.33
2019-05-29T11:11:36.462Z,17.40
2019-05-29T11:14:06.291Z,17.61
2019-05-29T11:16:39.614Z,17.61
2019-05-29T11:19:07.144Z,17.87
2019-05-29T11:21:36.709Z,17.81
2019-05-29T11:24:06.467Z,17.94
2019-05-29T11:26:36.033Z,18.23
2019-05-29T11:29:06.209Z,18.38
2019-05-29T11:31:35.873Z,18.70
2019-05-29T11:34:05.776Z,18.65
2019-05-29T11:36:35.338Z,18.83
2019-05-29T11:39:08.297Z,18.49
2019-05-29T11:41:37.867Z,18.78
2019-05-29T11:44:07.520Z,19.02
2019-05-29T11:46:37.260Z,18.72
2019-05-29T11:49:06.857Z,18.89
2019-05-29T11:51:36.533Z,19.24
2019-05-29T11:54:06.200Z,19.38
2019-05-29T11:56:35.826Z,18.92
2019-05-29T11:59:06.749Z,18.85
2019-05-29T12:01:49.813Z,19.06
2019-05-29T12:04:24.108Z,18.92
2019-05-29T12:06:38.938Z,19.07
2019-05-29T12:09:10.261Z,19.39
2019-05-29T12:11:39.835Z,19.26
2019-05-29T12:14:09.443Z,19.47
2019-05-29T12:16:39.017Z,19.58
2019-05-29T12:19:08.598Z,19.79
2019-05-29T12:21:42.393Z,19.73
2019-05-29T12:24:09.595Z,20.05
2019-05-29T12:26:39.395Z,19.62
2019-05-29T12:29:11.880Z,19.84
2019-05-29T12:31:40.442Z,20.14
2019-05-29T12:34:18.947Z,20.12
2019-05-29T12:36:41.328Z,20.17
2019-05-29T12:39:10.918Z,20.40
2019-05-29T12:41:40.523Z,20.65
2019-05-29T12:44:10.183Z,20.91
2019-05-29T12:46:39.913Z,21.11
2019-05-29T12:49:09.512Z,21.47
2019-05-29T12:51:39.192Z,21.25
2019-05-29T12:54:08.772Z,21.26
2019-05-29T12:56:38.342Z,20.85
2019-05-29T12:59:07.996Z,20.40
2019-05-29T13:01:37.669Z,20.85
2019-05-29T13:04:07.333Z,21.23
2019-05-29T13:06:36.890Z,20.51
2019-05-29T13:09:08.465Z,20.62
2019-05-29T13:11:38.125Z,20.69
2019-05-29T13:14:07.696Z,20.70
2019-05-29T13:16:37.276Z,20.97
2019-05-29T13:19:06.951Z,21.13
2019-05-29T13:21:36.537Z,20.99
2019-05-29T13:24:11.477Z,21.27
2019-05-29T13:26:38.069Z,20.81
2019-05-29T13:29:07.630Z,20.66
2019-05-29T13:31:37.214Z,20.38
2019-05-29T13:34:07.271Z,20.60
2019-05-29T13:36:37.055Z,20.77
2019-05-29T13:39:08.685Z,20.98
2019-05-29T13:41:38.254Z,20.79
2019-05-29T13:44:08.045Z,20.76
2019-05-29T13:46:37.668Z,20.66
2019-05-29T13:49:07.353Z,20.72
2019-05-29T13:51:37.107Z,20.84
2019-05-29T13:54:13.498Z,20.86
2019-05-29T13:56:39.072Z,21.20
2019-05-29T13:59:08.626Z,21.28
2019-05-29T14:01:38.309Z,21.62
2019-05-29T14:04:08.618Z,21.93
2019-05-29T14:06:38.385Z,22.19
2019-05-29T14:09:09.888Z,22.79
2019-05-29T14:11:39.988Z,23.00
2019-05-29T14:14:12.984Z,23.24
2019-05-29T14:16:42.003Z,23.29
2019-05-29T14:19:12.148Z,22.66
2019-05-29T14:21:43.002Z,22.90
2019-05-29T14:24:26.217Z,22.62
2019-05-29T14:26:44.219Z,22.06
2019-05-29T14:29:13.835Z,22.43
2019-05-29T14:31:43.461Z,22.06
2019-05-29T14:34:13.458Z,22.16
2019-05-29T14:36:43.108Z,21.69
2019-05-29T14:39:12.692Z,22.19
2019-05-29T14:41:42.318Z,22.10
2019-05-29T14:44:12.113Z,22.30
2019-05-29T14:46:41.815Z,22.32
2019-05-29T14:49:13.363Z,21.92
2019-05-29T14:51:42.699Z,22.06
2019-05-29T14:54:13.072Z,22.05
2019-05-29T14:56:43.191Z,22.01
2019-05-29T14:59:13.704Z,22.61
2019-05-29T15:01:43.466Z,22.29
2019-05-29T15:04:14.606Z,21.93
2019-05-29T15:06:44.395Z,21.93
2019-05-29T15:09:14.079Z,22.24
2019-05-29T15:11:43.664Z,22.61
2019-05-29T15:14:14.475Z,22.71
2019-05-29T15:16:44.113Z,22.64
2019-05-29T15:19:15.106Z,22.13
2019-05-29T15:21:44.891Z,22.60
2019-05-29T15:24:15.881Z,23.04
2019-05-29T15:26:45.677Z,22.68
2019-05-29T15:29:17.864Z,22.38
2019-05-29T15:31:46.812Z,22.65
2019-05-29T15:34:16.608Z,22.32
2019-05-29T15:36:47.155Z,22.45
2019-05-29T15:39:16.954Z,21.95
2019-05-29T15:41:46.484Z,22.43
2019-05-29T15:44:17.286Z,22.83
2019-05-29T15:46:47.166Z,22.33
2019-05-29T15:49:17.309Z,21.74
2019-05-29T15:51:47.098Z,21.65
2019-05-29T15:54:17.508Z,21.90
2019-05-29T15:56:47.286Z,22.26
2019-05-29T15:59:18.892Z,22.79
2019-05-29T16:01:48.228Z,23.18
2019-05-29T16:04:19.370Z,22.97
2019-05-29T16:06:49.715Z,22.85
2019-05-29T16:09:19.377Z,22.59
2019-05-29T16:11:49.012Z,22.10
2019-05-29T16:14:19.265Z,22.05
2019-05-29T16:16:49.093Z,21.90
2019-05-29T16:19:19.096Z,22.65
2019-05-29T16:21:48.746Z,22.94
2019-05-29T16:24:19.014Z,22.79
2019-05-29T16:26:48.775Z,22.84
2019-05-29T16:29:19.745Z,22.96
2019-05-29T16:31:49.471Z,23.04
2019-05-29T16:34:21.513Z,23.25
2019-05-29T16:36:51.363Z,23.81
2019-05-29T16:39:21.485Z,23.72
2019-05-29T16:41:52.309Z,23.85
2019-05-29T16:44:27.330Z,24.57
2019-05-29T16:46:53.216Z,25.42
2019-05-29T16:49:23.096Z,26.42
2019-05-29T16:51:52.775Z,27.09
2019-05-29T16:54:23.208Z,26.17
2019-05-29T16:56:53.004Z,25.90
2019-05-29T16:59:24.962Z,25.81
2019-05-29T17:01:53.851Z,24.91
2019-05-29T17:04:23.942Z,24.13
2019-05-29T17:06:53.595Z,23.68
2019-05-29T17:09:24.417Z,22.47
2019-05-29T17:11:54.271Z,22.29
2019-05-29T17:14:25.051Z,21.74
2019-05-29T17:16:54.926Z,21.59
2019-05-29T17:19:25.502Z,21.77
2019-05-29T17:21:55.208Z,21.68
2019-05-29T17:24:25.026Z,21.62
2019-05-29T17:26:54.696Z,21.18
2019-05-29T17:29:25.083Z,20.64
2019-05-29T17:31:54.741Z,20.90
2019-05-29T17:34:25.269Z,21.14
2019-05-29T17:36:55.058Z,21.43
2019-05-29T17:39:25.145Z,21.59
2019-05-29T17:41:54.761Z,21.26
2019-05-29T17:44:25.577Z,21.45
2019-05-29T17:46:55.654Z,21.51
2019-05-29T17:49:33.894Z,21.49
2019-05-29T17:51:56.576Z,21.49
2019-05-29T17:54:26.205Z,21.26
2019-05-29T17:56:56.526Z,20.93
2019-05-29T17:59:26.358Z,20.63
2019-05-29T18:01:56.040Z,20.34
2019-05-29T18:04:26.776Z,20.18
2019-05-29T18:06:56.776Z,20.03
2019-05-29T18:09:28.813Z,20.06
2019-05-29T18:11:57.801Z,20.14
2019-05-29T18:14:27.615Z,20.17
2019-05-29T18:16:57.324Z,19.89
2019-05-29T18:19:28.234Z,19.76
2019-05-29T18:21:58.566Z,19.49
2019-05-29T18:24:29.178Z,19.40
2019-05-29T18:26:59.351Z,19.27
2019-05-29T18:29:31.190Z,19.15
2019-05-29T18:32:01.455Z,19.14
2019-05-29T18:34:31.033Z,19.00
2019-05-29T18:37:02.510Z,18.94
2019-05-29T18:39:32.514Z,18.88
2019-05-29T18:42:03.182Z,18.72
2019-05-29T18:44:33.106Z,18.76
2019-05-29T18:47:02.789Z,18.66
2019-05-29T18:49:32.688Z,18.53
2019-05-29T18:52:02.270Z,18.46
2019-05-29T18:54:33.112Z,18.49
2019-05-29T18:57:15.170Z,18.32
2019-05-29T18:59:34.241Z,18.28
2019-05-29T19:02:03.879Z,18.07
2019-05-29T19:04:33.490Z,17.96
2019-05-29T19:07:03.057Z,17.95
2019-05-29T19:09:32.718Z,17.89
2019-05-29T19:12:02.457Z,17.93
2019-05-29T19:14:32.509Z,18.03
2019-05-29T19:17:02.352Z,18.11
2019-05-29T19:19:32.533Z,18.05
2019-05-29T19:22:02.305Z,18.09
2019-05-29T19:24:32.850Z,18.03
2019-05-29T19:27:02.493Z,17.98
2019-05-29T19:29:33.311Z,18.02
2019-05-29T19:32:02.991Z,18.06
2019-05-29T19:34:33.678Z,18.01
2019-05-29T19:37:03.505Z,18.00
2019-05-29T19:39:34.195Z,18.01
2019-05-29T19:42:03.855Z,17.99
2019-05-29T19:44:34.598Z,18.01
2019-05-29T19:47:04.334Z,17.87
2019-05-29T19:49:35.195Z,17.92
2019-05-29T19:52:05.096Z,17.83
2019-05-29T19:54:35.731Z,17.81
2019-05-29T19:57:05.706Z,17.72
2019-05-29T19:59:36.317Z,17.69
2019-05-29T20:02:06.033Z,17.68
2019-05-29T20:04:36.824Z,17.82
2019-05-29T20:07:06.650Z,17.81
2019-05-29T20:09:37.480Z,17.82
2019-05-29T20:12:07.215Z,17.88
2019-05-29T20:14:37.955Z,17.77
2019-05-29T20:17:07.735Z,17.69
2019-05-29T20:19:40.713Z,17.72
2019-05-29T20:22:08.705Z,17.71
2019-05-29T20:24:39.084Z,17.78
2019-05-29T20:27:08.696Z,17.63
2019-05-29T20:29:38.556Z,17.44
2019-05-29T20:32:08.421Z,17.45
2019-05-29T20:34:38.998Z,17.44
2019-05-29T20:37:08.774Z,17.48
2019-05-29T20:39:38.587Z,17.28
2019-05-29T20:42:08.321Z,17.25
2019-05-29T20:44:38.721Z,17.22
2019-05-29T20:47:08.698Z,17.13
2019-05-29T20:49:38.305Z,17.15
2019-05-29T20:52:07.977Z,17.04
2019-05-29T20:54:37.707Z,16.90
2019-05-29T20:57:10.727Z,16.89
2019-05-29T20:59:42.150Z,16.80
2019-05-29T21:02:12.302Z,16.69
2019-05-29T21:04:42.764Z,16.70
2019-05-29T21:07:12.523Z,16.75
2019-05-29T21:09:43.320Z,16.62
2019-05-29T21:12:12.897Z,16.57
2019-05-29T21:14:43.423Z,16.55
2019-05-29T21:17:13.741Z,16.67
2019-05-29T21:19:44.530Z,16.53
2019-05-29T21:22:14.387Z,16.57
2019-05-29T21:24:55.448Z,16.47
2019-05-29T21:27:15.464Z,16.45
2019-05-29T21:29:45.563Z,16.37
2019-05-29T21:32:15.315Z,16.26
2019-05-29T21:34:46.110Z,16.11
2019-05-29T21:37:15.840Z,16.08
2019-05-29T21:39:46.673Z,16.15
2019-05-29T21:42:16.425Z,16.03
2019-05-29T21:44:47.103Z,15.96
2019-05-29T21:47:16.788Z,15.89
2019-05-29T21:49:47.473Z,15.78
2019-05-29T21:52:17.208Z,15.79
2019-05-29T21:54:47.651Z,15.72
2019-05-29T21:57:17.404Z,15.59
2019-05-29T21:59:48.118Z,15.46
2019-05-29T22:02:18.264Z,15.51
2019-05-29T22:04:48.692Z,15.50
2019-05-29T22:07:18.480Z,15.43
2019-05-29T22:09:48.106Z,15.34
2019-05-29T22:12:17.861Z,15.42
2019-05-29T22:14:47.615Z,15.41
2019-05-29T22:17:17.176Z,15.41
2019-05-29T22:19:46.739Z,15.30
2019-05-29T22:22:16.321Z,15.22
2019-05-29T22:24:46.099Z,15.30
2019-05-29T22:27:15.720Z,15.24
2019-05-29T22:29:45.277Z,15.22
2019-05-29T22:32:15.147Z,15.03
2019-05-29T22:34:44.707Z,15.13
2019-05-29T22:37:14.371Z,14.95
2019-05-29T22:39:43.938Z,14.93
2019-05-29T22:42:13.545Z,15.10
2019-05-29T22:44:43.122Z,15.21
2019-05-29T22:47:12.704Z,15.14
2019-05-29T22:49:42.261Z,15.02
2019-05-29T22:52:11.864Z,14.97
2019-05-29T22:54:41.454Z,14.98
2019-05-29T22:57:11.049Z,15.00
2019-05-29T22:59:40.606Z,14.89
2019-05-29T23:02:10.199Z,14.90
2019-05-29T23:04:39.893Z,14.74
2019-05-29T23:07:09.552Z,14.47
2019-05-29T23:09:39.144Z,14.47
2019-05-29T23:12:08.729Z,14.38
2019-05-29T23:14:38.407Z,14.40
2019-05-29T23:17:07.971Z,14.37
2019-05-29T23:19:37.535Z,14.42
2019-05-29T23:22:07.933Z,14.35
2019-05-29T23:24:38.480Z,14.43
2019-05-29T23:27:09.712Z,14.46
2019-05-29T23:29:48.504Z,14.38
2019-05-29T23:32:10.690Z,14.21
2019-05-29T23:34:40.243Z,14.27
2019-05-29T23:37:13.440Z,14.27
2019-05-29T23:39:41.141Z,14.30
2019-05-29T23:42:10.768Z,14.34
2019-05-29T23:44:40.437Z,14.27
2019-05-29T23:47:10.140Z,14.22
2019-05-29T23:49:39.877Z,14.18
2019-05-29T23:52:09.468Z,14.17
2019-05-29T23:54:39.044Z,14.28
2019-05-29T23:57:08.640Z,14.40
2019-05-29T23:59:38.245Z,14.38
